createdAt,value
2023-05-03T00:41:50.363Z,11.63
2023-05-03T00:44:52.817Z,41.65
2023-05-03T00:47:55.584Z,42.33
2023-05-03T00:50:57.658Z,25.23
2023-05-03T00:53:59.221Z,30.25
2023-05-03T00:57:01.797Z,36.10
2023-05-03T01:00:04.238Z,44.63
2023-05-03T01:03:06.226Z,17.13
2023-05-03T01:06:20.671Z,10.03
2023-05-03T01:09:23.426Z,5.55
2023-05-03T01:12:40.872Z,4.97
2023-05-03T01:15:53.692Z,3.95
2023-05-03T01:18:55.414Z,3.53
2023-05-03T01:22:16.256Z,3.63
2023-05-03T01:25:18.119Z,3.30
2023-05-03T01:28:19.725Z,4.03
2023-05-03T01:31:35.435Z,4.00
2023-05-03T01:34:42.612Z,4.72
2023-05-03T01:37:44.210Z,4.00
2023-05-03T01:40:48.491Z,4.20
2023-05-03T01:43:50.548Z,3.55
2023-05-03T01:46:52.110Z,10.68
2023-05-03T01:49:53.666Z,41.73
2023-05-03T01:52:55.272Z,35.50
2023-05-03T01:55:56.884Z,22.17
2023-05-03T01:58:58.513Z,26.63
2023-05-03T02:02:00.070Z,36.87
2023-05-03T02:05:01.713Z,52.30
2023-05-03T02:08:03.621Z,43.30
2023-05-03T02:11:05.258Z,64.72
2023-05-03T02:14:08.007Z,20.73
2023-05-03T02:17:10.536Z,9.23
2023-05-03T02:23:14.333Z,5.20
2023-05-03T02:26:15.939Z,4.70
2023-05-03T02:29:17.487Z,4.20
2023-05-03T02:32:19.193Z,3.17
2023-05-03T02:35:23.415Z,4.57
2023-05-03T02:38:25.038Z,6.53
2023-05-03T02:41:27.117Z,23.73
2023-05-03T02:44:28.875Z,60.95
2023-05-03T02:47:30.833Z,45.00
2023-05-03T02:50:32.452Z,35.00
2023-05-03T02:53:34.067Z,23.90
2023-05-03T02:56:35.702Z,28.60
2023-05-03T02:59:37.297Z,29.73
2023-05-03T03:02:38.961Z,32.57
2023-05-03T03:05:40.655Z,38.63
2023-05-03T03:08:42.212Z,20.00
2023-05-03T03:11:43.753Z,16.53
2023-05-03T03:14:45.836Z,9.15
2023-05-03T03:17:47.556Z,4.80
2023-05-03T03:20:49.311Z,4.60
2023-05-03T03:23:51.011Z,4.03
2023-05-03T03:26:52.582Z,3.87
2023-05-03T03:29:54.226Z,3.35
2023-05-03T03:32:55.913Z,2.53
2023-05-03T03:35:57.563Z,3.50
2023-05-03T03:38:59.194Z,4.17
2023-05-03T03:42:01.086Z,3.60
2023-05-03T03:45:02.713Z,3.88
2023-05-03T03:48:04.471Z,4.23
2023-05-03T03:51:06.141Z,4.05
2023-05-03T03:54:07.789Z,3.10
2023-05-03T03:57:09.389Z,4.07
2023-05-03T04:00:11.835Z,3.90
2023-05-03T04:06:15.195Z,4.35
2023-05-03T04:09:17.671Z,4.83
2023-05-03T04:15:21.007Z,3.88
2023-05-03T04:18:23.062Z,3.67
2023-05-03T04:21:24.676Z,4.00
2023-05-03T04:24:30.543Z,3.33
2023-05-03T04:27:33.532Z,3.80
2023-05-03T04:30:35.861Z,4.35
2023-05-03T04:33:37.555Z,3.47
2023-05-03T04:36:40.054Z,2.93
2023-05-03T04:42:43.784Z,4.07
2023-05-03T04:45:45.449Z,3.88
2023-05-03T04:48:47.028Z,8.67
2023-05-03T04:51:48.672Z,31.58
2023-05-03T04:54:50.278Z,34.77
2023-05-03T04:57:51.857Z,22.02
2023-05-03T05:00:54.199Z,15.35
2023-05-03T05:03:55.978Z,7.18
2023-05-03T05:06:57.636Z,5.60
2023-05-03T05:09:59.380Z,4.33
2023-05-03T05:13:01.558Z,3.77
2023-05-03T05:16:03.828Z,3.45
2023-05-03T05:19:05.409Z,3.53
2023-05-03T05:22:06.961Z,3.70
2023-05-03T05:25:08.606Z,4.27
2023-05-03T05:28:11.223Z,3.70
2023-05-03T05:31:13.543Z,3.97
2023-05-03T05:34:15.692Z,4.18
2023-05-03T05:37:17.367Z,3.70
2023-05-03T05:40:19.263Z,4.60
2023-05-03T05:43:20.917Z,4.18
2023-05-03T05:46:22.598Z,3.57
2023-05-03T05:49:24.204Z,4.55
2023-05-03T05:52:25.768Z,4.30
2023-05-03T05:55:27.496Z,4.73
2023-05-03T05:58:29.074Z,5.35
2023-05-03T06:01:32.137Z,5.37
2023-05-03T06:04:33.723Z,5.07
2023-05-03T06:07:35.517Z,5.07
2023-05-03T06:10:37.115Z,5.65
2023-05-03T06:13:40.733Z,4.60
2023-05-03T06:16:42.649Z,5.60
2023-05-03T06:19:45.204Z,4.40
2023-05-03T06:22:46.925Z,4.72
2023-05-03T06:25:48.853Z,5.00
2023-05-03T06:28:52.119Z,11.02
2023-05-03T06:31:53.643Z,5.88
2023-05-03T06:34:55.341Z,4.30
2023-05-03T06:37:56.938Z,3.70
2023-05-03T06:40:58.551Z,4.53
2023-05-03T06:44:00.178Z,5.65
2023-05-03T06:47:02.334Z,4.65
2023-05-03T06:50:04.628Z,5.30
2023-05-03T06:53:06.609Z,5.20
2023-05-03T06:56:08.204Z,5.45
2023-05-03T06:59:09.766Z,4.63
2023-05-03T07:02:11.759Z,4.28
2023-05-03T07:05:13.453Z,4.70
2023-05-03T07:08:15.107Z,4.97
2023-05-03T07:11:16.669Z,5.05
2023-05-03T07:14:18.242Z,7.40
2023-05-03T07:17:19.803Z,6.15
2023-05-03T07:20:21.546Z,6.03
2023-05-03T07:23:23.149Z,8.23
2023-05-03T07:26:26.582Z,4.22
2023-05-03T07:29:28.170Z,5.30
2023-05-03T07:32:30.105Z,4.30
2023-05-03T07:35:33.071Z,4.95
2023-05-03T07:38:34.582Z,4.50
2023-05-03T07:41:37.074Z,3.78
2023-05-03T07:44:38.736Z,4.25
2023-05-03T07:47:40.502Z,4.70
2023-05-03T07:50:43.844Z,4.72
2023-05-03T07:53:45.439Z,4.60
2023-05-03T07:56:47.026Z,4.70
2023-05-03T07:59:48.572Z,4.72
2023-05-03T08:02:50.223Z,4.18
2023-05-03T08:05:51.875Z,5.43
2023-05-03T08:08:53.479Z,5.15
2023-05-03T08:11:56.346Z,4.40
2023-05-03T08:14:58.130Z,4.38
2023-05-03T08:17:59.933Z,4.32
2023-05-03T08:21:01.528Z,4.72
2023-05-03T08:24:06.010Z,4.05
2023-05-03T08:27:08.336Z,5.25
2023-05-03T08:30:10.736Z,4.97
2023-05-03T08:33:12.371Z,4.80
2023-05-03T08:36:13.995Z,4.88
2023-05-03T08:39:15.795Z,4.93
2023-05-03T08:45:18.869Z,4.90
2023-05-03T08:48:23.589Z,4.47
2023-05-03T08:51:25.446Z,5.38
2023-05-03T08:57:28.937Z,4.32
2023-05-03T09:00:30.708Z,5.25
2023-05-03T09:03:33.052Z,4.53
2023-05-03T09:06:34.786Z,5.05
2023-05-03T09:09:36.782Z,5.38
2023-05-03T09:15:45.281Z,5.30
2023-05-03T09:18:56.866Z,5.00
2023-05-03T09:21:58.456Z,4.82
2023-05-03T09:25:00.487Z,5.13
2023-05-03T09:31:06.140Z,4.72
2023-05-03T09:34:23.342Z,4.20
2023-05-03T09:37:36.342Z,4.20
2023-05-03T09:40:38.004Z,4.18
2023-05-03T09:47:06.709Z,3.50
2023-05-03T09:50:09.059Z,3.65
2023-05-03T09:53:10.725Z,3.50
2023-05-03T09:59:18.227Z,3.50
2023-05-03T10:02:19.783Z,3.28
2023-05-03T10:08:40.992Z,3.70
2023-05-03T10:11:52.480Z,3.40
2023-05-03T10:14:54.022Z,3.53
2023-05-03T10:17:55.626Z,3.47
2023-05-03T10:21:01.319Z,3.38
2023-05-03T10:24:16.257Z,3.60
2023-05-03T10:27:18.161Z,3.70
2023-05-03T10:30:26.101Z,3.45
2023-05-03T10:33:36.764Z,3.13
2023-05-03T10:36:48.919Z,3.40
2023-05-03T10:39:54.569Z,3.47
2023-05-03T10:43:00.213Z,3.20
2023-05-03T10:46:03.128Z,3.45
2023-05-03T10:49:20.824Z,2.78
2023-05-03T10:52:45.985Z,3.40
2023-05-03T10:56:12.786Z,3.13
2023-05-03T10:59:14.394Z,3.17
2023-05-03T11:02:17.158Z,3.28
2023-05-03T11:05:19.117Z,3.90
2023-05-03T11:08:22.507Z,3.40
2023-05-03T11:11:24.135Z,3.60
2023-05-03T11:14:25.811Z,4.68
2023-05-03T11:17:29.255Z,3.70
2023-05-03T11:20:32.021Z,3.50
2023-05-03T11:23:33.634Z,3.67
2023-05-03T11:26:38.567Z,4.38
2023-05-03T11:29:41.278Z,3.38
2023-05-03T11:32:43.075Z,3.42
2023-05-03T11:35:44.850Z,3.15
2023-05-03T11:38:46.422Z,3.33
2023-05-03T11:42:01.327Z,3.47
2023-05-03T11:45:04.236Z,3.28
2023-05-03T11:48:10.466Z,3.40
2023-05-03T11:51:13.735Z,3.67
2023-05-03T11:57:24.667Z,3.42
2023-05-03T12:00:26.748Z,3.20
2023-05-03T12:03:32.387Z,3.85
2023-05-03T12:06:35.927Z,3.58
2023-05-03T12:09:39.885Z,3.33
2023-05-03T12:12:57.105Z,3.50
2023-05-03T12:16:11.584Z,3.33
2023-05-03T12:19:33.943Z,3.33
2023-05-03T12:22:36.533Z,3.08
2023-05-03T12:25:39.723Z,3.10
2023-05-03T12:28:42.361Z,3.25
2023-05-03T12:31:44.594Z,3.05
2023-05-03T12:34:47.105Z,3.45
2023-05-03T12:37:49.747Z,3.47
2023-05-03T12:40:51.516Z,2.92
2023-05-03T12:43:53.721Z,3.05
2023-05-03T12:46:55.564Z,3.40
2023-05-03T12:49:59.836Z,2.90
2023-05-03T12:53:02.847Z,3.13
2023-05-03T12:56:06.608Z,3.25
2023-05-03T12:59:39.372Z,4.03
2023-05-03T13:05:36.331Z,3.42
2023-05-03T13:11:45.002Z,3.30
2023-05-03T13:14:50.840Z,3.30
2023-05-03T13:17:52.612Z,3.78
2023-05-03T13:20:57.342Z,2.72
2023-05-03T13:23:59.008Z,3.15
2023-05-03T13:27:00.676Z,3.50
2023-05-03T13:30:05.081Z,3.38
2023-05-03T13:33:08.404Z,3.10
2023-05-03T13:36:10.050Z,2.85
2023-05-03T13:39:11.649Z,3.25
2023-05-03T13:42:13.284Z,3.17
2023-05-03T13:45:15.400Z,3.67
2023-05-03T13:48:18.557Z,3.10
2023-05-03T13:51:20.780Z,3.45
2023-05-03T13:54:22.331Z,3.60
2023-05-03T13:57:23.840Z,4.03
2023-05-03T14:00:25.691Z,3.55
2023-05-03T14:03:27.346Z,3.40
2023-05-03T14:06:31.133Z,4.18
2023-05-03T14:09:39.302Z,3.33
2023-05-03T14:12:41.379Z,3.50
2023-05-03T14:15:45.213Z,3.40
2023-05-03T14:18:51.099Z,3.20
2023-05-03T14:21:59.613Z,2.75
2023-05-03T14:25:01.205Z,2.97
2023-05-03T14:28:03.336Z,3.10
2023-05-03T14:31:06.697Z,3.33
2023-05-03T14:34:08.293Z,3.20
2023-05-03T14:37:09.902Z,2.50
2023-05-03T14:40:11.732Z,3.30
2023-05-03T14:43:13.776Z,5.35
2023-05-03T14:46:16.338Z,4.13
2023-05-03T14:49:18.202Z,15.35
2023-05-03T14:52:19.724Z,5.63
2023-05-03T14:58:22.919Z,4.82
2023-05-03T15:04:26.316Z,3.13
2023-05-03T15:07:28.198Z,2.90
2023-05-03T15:10:29.739Z,2.90
2023-05-03T15:16:34.084Z,6.03
2023-05-03T15:19:37.698Z,3.20
2023-05-03T15:22:39.364Z,3.22
2023-05-03T15:25:40.890Z,3.15
2023-05-03T15:31:44.163Z,3.10
2023-05-03T15:34:46.205Z,3.20
2023-05-03T15:37:48.241Z,2.40
2023-05-03T15:40:49.792Z,2.92
2023-05-03T15:46:52.863Z,2.78
2023-05-03T15:52:57.053Z,2.50
2023-05-03T15:55:58.775Z,2.83
2023-05-03T15:59:00.308Z,2.95
2023-05-03T16:02:03.322Z,3.00
2023-05-03T16:05:05.200Z,2.95
2023-05-03T16:08:08.154Z,2.97
2023-05-03T16:11:09.792Z,2.88
2023-05-03T16:17:12.996Z,2.90
2023-05-03T16:20:15.196Z,2.85
2023-05-03T16:23:19.837Z,3.17
2023-05-03T16:26:21.486Z,3.05
2023-05-03T16:32:25.284Z,2.92
2023-05-03T16:35:27.209Z,2.95
2023-05-03T16:38:30.796Z,3.08
2023-05-03T16:41:32.415Z,2.92
2023-05-03T16:44:33.974Z,2.75
2023-05-03T16:47:35.645Z,3.03
2023-05-03T16:56:40.656Z,3.58
2023-05-03T16:59:42.210Z,2.55
2023-05-03T17:02:43.925Z,2.72
2023-05-03T17:08:47.317Z,2.60
2023-05-03T17:14:50.700Z,2.60
2023-05-03T17:17:52.334Z,2.65
2023-05-03T17:24:00.693Z,2.90
2023-05-03T17:27:02.949Z,2.63
2023-05-03T17:30:06.014Z,3.38
2023-05-03T17:33:07.825Z,2.72
2023-05-03T17:36:09.386Z,2.83
2023-05-03T17:39:10.925Z,2.65
2023-05-03T17:42:12.472Z,3.08
2023-05-03T17:45:14.029Z,3.28
2023-05-03T17:48:15.996Z,3.13
2023-05-03T17:51:17.685Z,2.83
2023-05-03T17:54:19.260Z,2.95
2023-05-03T17:57:20.890Z,3.00
2023-05-03T18:00:22.683Z,3.10
2023-05-03T18:06:28.108Z,2.90
2023-05-03T18:09:31.119Z,3.25
2023-05-03T18:12:32.723Z,3.00
2023-05-03T18:15:34.357Z,3.70
2023-05-03T18:18:38.369Z,3.10
2023-05-03T18:21:40.112Z,3.20
2023-05-03T18:24:41.685Z,2.80
2023-05-03T18:27:43.238Z,2.92
2023-05-03T18:30:45.466Z,3.10
2023-05-03T18:33:47.035Z,2.85
2023-05-03T18:36:48.678Z,2.70
2023-05-03T18:39:51.639Z,3.17
2023-05-03T18:42:53.227Z,2.97
2023-05-03T18:45:54.837Z,3.00
2023-05-03T18:48:56.454Z,3.05
2023-05-03T18:51:58.107Z,2.80
2023-05-03T18:54:59.684Z,3.03
2023-05-03T18:58:01.543Z,3.03
2023-05-03T19:01:04.858Z,4.40
2023-05-03T19:04:08.283Z,4.70
2023-05-03T19:07:10.521Z,4.60
2023-05-03T19:10:12.366Z,3.90
2023-05-03T19:13:15.833Z,4.22
2023-05-03T19:16:20.497Z,3.08
2023-05-03T19:19:22.123Z,2.85
2023-05-03T19:22:28.020Z,3.03
2023-05-03T19:25:29.648Z,3.65
2023-05-03T19:28:34.330Z,3.10
2023-05-03T19:31:36.082Z,3.40
2023-05-03T19:34:37.768Z,3.75
2023-05-03T19:37:39.351Z,3.63
2023-05-03T19:40:41.362Z,3.95
2023-05-03T19:43:42.987Z,2.75
2023-05-03T19:46:44.773Z,3.05
2023-05-03T19:49:46.399Z,3.00
2023-05-03T19:52:52.535Z,3.08
2023-05-03T19:55:58.157Z,3.55
2023-05-03T19:58:59.731Z,3.03
2023-05-03T20:02:01.346Z,2.80
2023-05-03T20:05:03.979Z,2.78
2023-05-03T20:08:05.504Z,3.30
2023-05-03T20:11:07.202Z,2.88
2023-05-03T20:14:08.766Z,3.45
2023-05-03T20:17:10.327Z,3.00
2023-05-03T20:20:12.601Z,3.35
2023-05-03T20:23:15.008Z,3.70
2023-05-03T20:26:18.904Z,3.17
2023-05-03T20:29:20.627Z,3.22
2023-05-03T20:32:22.487Z,2.90
2023-05-03T20:35:24.019Z,3.40
2023-05-03T20:38:25.602Z,3.05
2023-05-03T20:41:27.509Z,2.90
2023-05-03T20:44:29.038Z,3.55
2023-05-03T20:47:30.724Z,3.30
2023-05-03T20:50:32.318Z,3.10
2023-05-03T20:53:33.955Z,3.00
2023-05-03T20:56:35.498Z,3.55
2023-05-03T20:59:37.058Z,3.45
2023-05-03T21:02:38.660Z,2.60
2023-05-03T21:05:40.274Z,3.05
2023-05-03T21:08:42.395Z,3.25
2023-05-03T21:11:44.204Z,3.38
2023-05-03T21:14:45.988Z,3.22
2023-05-03T21:17:49.803Z,2.97
2023-05-03T21:20:53.417Z,3.60
2023-05-03T21:23:55.117Z,3.38
2023-05-03T21:26:57.562Z,3.50
2023-05-03T21:29:59.078Z,3.15
2023-05-03T21:33:00.770Z,3.45
2023-05-03T21:36:02.461Z,3.53
2023-05-03T21:39:04.035Z,3.50
2023-05-03T21:42:06.455Z,3.40
2023-05-03T21:45:08.505Z,3.38
2023-05-03T21:48:10.290Z,3.35
2023-05-03T21:51:21.850Z,3.25
2023-05-03T21:54:25.806Z,3.10
2023-05-03T21:57:27.573Z,2.90
2023-05-03T22:00:29.211Z,2.97
2023-05-03T22:03:30.815Z,3.60
2023-05-03T22:06:32.539Z,3.42
2023-05-03T22:09:34.504Z,4.05
2023-05-03T22:12:36.193Z,3.15
2023-05-03T22:15:37.827Z,4.28
2023-05-03T22:18:39.468Z,3.40
2023-05-03T22:21:41.031Z,3.58
2023-05-03T22:24:42.615Z,3.80
2023-05-03T22:27:44.258Z,3.67
2023-05-03T22:30:45.942Z,4.55
2023-05-03T22:33:48.898Z,3.88
2023-05-03T22:36:50.560Z,3.55
2023-05-03T22:39:52.159Z,3.00
2023-05-03T22:42:53.722Z,3.33
2023-05-03T22:45:55.486Z,3.27
2023-05-03T22:48:57.370Z,3.58
2023-05-03T22:51:58.963Z,3.47
2023-05-03T22:55:01.377Z,3.27
2023-05-03T23:01:04.822Z,4.07
2023-05-03T23:04:06.537Z,3.45
2023-05-03T23:07:08.103Z,4.30
2023-05-03T23:10:12.347Z,3.53
2023-05-03T23:13:13.930Z,3.63
2023-05-03T23:16:15.585Z,3.72
2023-05-03T23:19:17.241Z,3.47
2023-05-03T23:22:18.841Z,3.38
2023-05-03T23:25:20.711Z,4.13
2023-05-03T23:28:22.327Z,3.60
2023-05-03T23:31:24.316Z,3.67
2023-05-03T23:34:26.199Z,3.50
2023-05-03T23:37:27.827Z,3.83
2023-05-03T23:40:29.407Z,4.00
2023-05-03T23:43:30.995Z,4.00
2023-05-03T23:46:33.893Z,4.25
2023-05-03T23:49:35.630Z,15.23
2023-05-03T23:52:37.269Z,67.15
2023-05-03T23:55:38.826Z,24.45
2023-05-03T23:58:40.595Z,28.07
